createdAt,value
2019-05-21T00:01:37.546Z,9.07
2019-05-21T00:04:09.512Z,12.40
2019-05-21T00:06:41.862Z,10.53
2019-05-21T00:09:13.832Z,10.33
2019-05-21T00:11:45.866Z,9.17
2019-05-21T00:14:17.814Z,7.87
2019-05-21T00:16:50.076Z,7.30
2019-05-21T00:19:22.032Z,12.03
2019-05-21T00:21:54.398Z,13.67
2019-05-21T00:24:26.375Z,10.13
2019-05-21T00:26:58.510Z,10.47
2019-05-21T00:30:24.320Z,10.50
2019-05-21T00:33:49.696Z,6.57
2019-05-21T00:37:19.930Z,9.90
2019-05-21T00:40:45.564Z,8.83
2019-05-21T00:43:18.980Z,8.97
2019-05-21T00:45:51.620Z,9.30
2019-05-21T00:48:23.562Z,9.17
2019-05-21T00:50:55.540Z,10.30
2019-05-21T00:53:27.632Z,6.77
2019-05-21T00:55:59.990Z,8.40
2019-05-21T00:58:32.074Z,8.83
2019-05-21T01:01:04.146Z,8.03
2019-05-21T01:03:36.114Z,7.43
2019-05-21T01:06:08.130Z,8.07
2019-05-21T01:08:40.492Z,7.60
2019-05-21T01:11:12.454Z,7.57
2019-05-21T01:13:44.425Z,5.73
2019-05-21T01:16:16.408Z,9.67
2019-05-21T01:18:48.373Z,8.03
2019-05-21T01:21:20.354Z,6.83
2019-05-21T01:23:52.308Z,6.10
2019-05-21T01:26:24.283Z,6.93
2019-05-21T01:28:56.221Z,6.57
2019-05-21T01:31:28.189Z,6.33
2019-05-21T01:34:00.408Z,9.40
2019-05-21T01:36:32.373Z,8.40
2019-05-21T01:39:05.483Z,8.27
2019-05-21T01:41:37.860Z,7.73
2019-05-21T01:44:09.812Z,7.23
2019-05-21T01:46:41.762Z,7.87
2019-05-21T01:49:13.784Z,7.83
2019-05-21T01:51:45.750Z,9.17
2019-05-21T01:54:17.780Z,6.23
2019-05-21T01:56:50.288Z,6.33
2019-05-21T01:59:22.277Z,7.70
2019-05-21T02:01:54.277Z,6.37
2019-05-21T02:04:26.226Z,5.90
2019-05-21T02:06:58.314Z,5.40
2019-05-21T02:09:32.196Z,6.73
2019-05-21T02:12:04.159Z,5.93
2019-05-21T02:14:36.134Z,8.37
2019-05-21T02:17:08.077Z,6.07
2019-05-21T02:19:40.302Z,7.67
2019-05-21T02:22:12.333Z,7.67
2019-05-21T02:24:44.264Z,6.23
2019-05-21T02:27:16.246Z,6.07
2019-05-21T02:29:48.174Z,5.93
2019-05-21T02:32:20.141Z,6.70
2019-05-21T02:34:52.087Z,6.40
2019-05-21T02:37:24.085Z,6.43
2019-05-21T02:39:56.109Z,7.30
2019-05-21T02:42:28.292Z,6.50
2019-05-21T02:45:00.238Z,6.07
2019-05-21T02:47:32.183Z,5.50
2019-05-21T02:50:04.140Z,4.63
2019-05-21T02:52:36.155Z,4.70
2019-05-21T02:55:08.560Z,7.37
2019-05-21T02:57:41.937Z,6.20
2019-05-21T03:00:38.411Z,5.40
2019-05-21T03:03:08.452Z,6.37
2019-05-21T03:05:40.620Z,7.23
2019-05-21T03:08:12.552Z,7.40
2019-05-21T03:10:44.493Z,9.73
2019-05-21T03:13:16.474Z,6.50
2019-05-21T03:15:48.430Z,9.10
2019-05-21T03:18:20.798Z,8.17
2019-05-21T03:20:52.768Z,9.97
2019-05-21T03:23:25.004Z,11.57
2019-05-21T03:25:56.957Z,10.37
2019-05-21T03:28:28.901Z,11.27
2019-05-21T03:31:01.273Z,9.57
2019-05-21T03:33:33.257Z,10.90
2019-05-21T03:36:05.213Z,9.10
2019-05-21T03:38:37.198Z,9.10
2019-05-21T03:41:09.168Z,8.23
2019-05-21T03:43:41.159Z,7.83
2019-05-21T03:46:13.119Z,9.00
2019-05-21T03:48:45.075Z,7.00
2019-05-21T03:51:17.116Z,9.80
2019-05-21T03:53:49.126Z,7.80
2019-05-21T03:56:21.219Z,7.63
2019-05-21T03:58:53.189Z,8.17
2019-05-21T04:01:25.200Z,7.93
2019-05-21T04:03:57.205Z,6.93
2019-05-21T04:06:29.167Z,7.50
2019-05-21T04:09:01.256Z,7.87
2019-05-21T04:11:33.229Z,6.83
2019-05-21T04:14:05.256Z,6.47
2019-05-21T04:16:45.291Z,8.67
2019-05-21T04:19:21.072Z,10.63
2019-05-21T04:21:56.088Z,7.23
2019-05-21T04:24:28.074Z,9.47
2019-05-21T04:27:00.309Z,10.27
2019-05-21T04:29:32.653Z,10.07
2019-05-21T04:32:04.603Z,8.17
2019-05-21T04:34:36.634Z,9.87
2019-05-21T04:37:11.361Z,10.23
2019-05-21T04:39:42.324Z,9.97
2019-05-21T04:42:14.313Z,8.83
2019-05-21T04:44:46.351Z,8.03
2019-05-21T04:47:18.334Z,5.97
2019-05-21T04:49:50.270Z,7.70
2019-05-21T04:52:22.258Z,7.30
2019-05-21T04:54:54.224Z,5.80
2019-05-21T04:57:26.168Z,5.37
2019-05-21T04:59:58.121Z,5.67
2019-05-21T05:02:30.357Z,4.30
2019-05-21T05:05:02.328Z,5.10
2019-05-21T05:07:34.266Z,4.87
2019-05-21T05:10:07.108Z,6.57
2019-05-21T05:12:39.074Z,6.43
2019-05-21T05:15:11.318Z,4.60
2019-05-21T05:17:43.314Z,5.10
2019-05-21T05:20:15.404Z,5.53
2019-05-21T05:22:47.463Z,7.63
2019-05-21T05:25:19.900Z,6.63
2019-05-21T05:27:51.964Z,8.87
2019-05-21T05:30:23.966Z,5.50
2019-05-21T05:32:55.951Z,3.97
2019-05-21T05:35:27.949Z,5.20
2019-05-21T05:37:58.783Z,3.70
2019-05-21T05:40:30.550Z,4.20
2019-05-21T05:43:02.507Z,3.67
2019-05-21T05:45:34.476Z,5.27
2019-05-21T05:48:06.549Z,4.47
2019-05-21T05:50:40.572Z,5.70
2019-05-21T05:53:13.483Z,5.70
2019-05-21T05:55:45.545Z,4.63
2019-05-21T05:58:17.550Z,3.90
2019-05-21T06:00:50.025Z,7.73
2019-05-21T06:03:22.127Z,4.47
2019-05-21T06:05:54.316Z,4.87
2019-05-21T06:08:26.320Z,6.00
2019-05-21T06:10:58.329Z,7.37
2019-05-21T06:13:30.293Z,7.97
2019-05-21T06:16:02.304Z,7.60
2019-05-21T06:18:35.654Z,7.77
2019-05-21T06:21:07.967Z,6.13
2019-05-21T06:23:39.928Z,5.57
2019-05-21T06:26:11.893Z,5.90
2019-05-21T06:28:43.923Z,6.47
2019-05-21T06:31:15.917Z,5.43
2019-05-21T06:33:47.924Z,7.47
2019-05-21T06:36:20.245Z,5.57
2019-05-21T06:38:52.221Z,7.93
2019-05-21T06:41:24.254Z,6.03
2019-05-21T06:44:02.215Z,5.80
2019-05-21T06:46:34.203Z,5.00
2019-05-21T06:49:06.144Z,5.30
2019-05-21T06:51:38.160Z,9.90
2019-05-21T06:54:10.174Z,8.10
2019-05-21T06:56:42.218Z,8.10
2019-05-21T06:59:14.162Z,9.73
2019-05-21T07:01:46.149Z,8.17
2019-05-21T07:04:18.144Z,6.60
2019-05-21T07:06:50.425Z,6.23
2019-05-21T07:09:22.370Z,6.20
2019-05-21T07:11:54.348Z,8.27
2019-05-21T07:14:26.341Z,6.53
2019-05-21T07:16:58.311Z,6.17
2019-05-21T07:19:30.259Z,5.43
2019-05-21T07:22:11.996Z,2.70
2019-05-21T07:24:35.987Z,3.50
2019-05-21T07:27:07.986Z,3.30
2019-05-21T07:29:40.206Z,4.63
2019-05-21T07:32:12.182Z,3.83
2019-05-21T07:34:44.339Z,4.13
2019-05-21T07:37:16.580Z,5.40
2019-05-21T07:39:48.539Z,4.27
2019-05-21T07:42:20.526Z,4.57
2019-05-21T07:44:52.622Z,4.83
2019-05-21T07:47:24.659Z,4.77
2019-05-21T07:49:56.595Z,5.07
2019-05-21T07:52:28.627Z,3.20
2019-05-21T07:55:00.849Z,6.53
2019-05-21T07:57:32.827Z,3.70
2019-05-21T08:00:05.453Z,3.60
2019-05-21T08:02:37.489Z,6.83
2019-05-21T08:05:09.555Z,5.70
2019-05-21T08:07:41.510Z,5.57
2019-05-21T08:10:13.594Z,4.33
2019-05-21T08:12:45.590Z,4.20
2019-05-21T08:15:17.527Z,4.73
2019-05-21T08:17:49.566Z,4.10
2019-05-21T08:20:23.544Z,6.37
2019-05-21T08:22:55.544Z,4.58
2019-05-21T08:25:27.511Z,4.12
2019-05-21T08:27:59.501Z,5.80
2019-05-21T08:30:31.473Z,4.80
2019-05-21T08:33:03.520Z,3.65
2019-05-21T08:35:38.324Z,3.10
2019-05-21T08:38:10.317Z,3.05
2019-05-21T08:40:42.233Z,3.70
2019-05-21T08:43:14.252Z,2.58
2019-05-21T08:45:46.339Z,5.15
2019-05-21T08:48:18.316Z,2.67
2019-05-21T08:50:50.698Z,2.77
2019-05-21T08:53:22.751Z,3.25
2019-05-21T08:55:54.732Z,3.70
2019-05-21T08:58:26.717Z,2.60
2019-05-21T09:00:58.686Z,5.97
2019-05-21T09:03:30.623Z,5.12
2019-05-21T09:06:02.613Z,3.35
2019-05-21T09:08:34.609Z,2.27
2019-05-21T09:11:06.578Z,4.30
2019-05-21T09:13:38.576Z,2.65
2019-05-21T09:16:10.951Z,2.40
2019-05-21T09:18:42.932Z,3.87
2019-05-21T09:21:14.976Z,2.12
2019-05-21T09:23:46.910Z,3.45
2019-05-21T09:26:18.954Z,5.67
2019-05-21T09:28:51.546Z,2.72
2019-05-21T09:31:23.527Z,4.03
2019-05-21T09:33:55.510Z,3.60
2019-05-21T09:36:28.161Z,3.35
2019-05-21T09:39:00.492Z,4.22
2019-05-21T09:41:32.494Z,2.98
2019-05-21T09:44:04.592Z,4.85
2019-05-21T09:46:36.707Z,4.53
2019-05-21T09:49:08.740Z,2.95
2019-05-21T09:51:40.697Z,3.70
2019-05-21T09:54:12.701Z,4.28
2019-05-21T09:56:44.678Z,3.75
2019-05-21T09:59:35.530Z,5.10
2019-05-21T10:02:17.103Z,3.75
2019-05-21T10:04:49.160Z,5.83
2019-05-21T10:07:38.221Z,3.00
2019-05-21T10:09:54.982Z,4.85
2019-05-21T10:12:26.932Z,3.50
2019-05-21T10:14:58.973Z,5.37
2019-05-21T10:17:30.991Z,5.15
2019-05-21T10:20:03.045Z,4.17
2019-05-21T10:22:35.050Z,7.17
2019-05-21T10:25:07.711Z,4.67
2019-05-21T10:27:39.749Z,4.78
2019-05-21T10:30:13.295Z,3.62
2019-05-21T10:32:45.280Z,3.08
2019-05-21T10:35:17.398Z,2.95
2019-05-21T10:37:54.862Z,2.12
2019-05-21T10:40:23.368Z,4.65
2019-05-21T10:42:55.350Z,2.17
2019-05-21T10:49:27.464Z,6.10
2019-05-21T10:51:59.434Z,5.90
2019-05-21T10:54:31.441Z,4.53
2019-05-21T10:57:03.414Z,4.45
2019-05-21T10:59:35.402Z,2.95
2019-05-21T11:02:23.443Z,2.80
2019-05-21T11:05:05.598Z,3.70
2019-05-21T11:07:37.586Z,3.15
2019-05-21T11:10:10.335Z,3.75
2019-05-21T11:12:42.390Z,5.22
2019-05-21T11:15:14.907Z,4.58
2019-05-21T11:17:59.145Z,3.83
2019-05-21T11:20:21.499Z,6.35
2019-05-21T11:22:53.539Z,3.83
2019-05-21T11:25:25.506Z,6.92
2019-05-21T11:27:57.501Z,4.40
2019-05-21T11:30:29.536Z,4.03
2019-05-21T11:33:01.497Z,3.27
2019-05-21T11:35:35.968Z,4.87
2019-05-21T11:38:07.129Z,3.55
2019-05-21T11:40:39.069Z,3.25
2019-05-21T11:43:11.184Z,2.40
2019-05-21T11:45:43.676Z,3.98
2019-05-21T11:48:15.748Z,3.55
2019-05-21T11:50:47.708Z,6.45
2019-05-21T11:53:19.654Z,7.03
2019-05-21T11:55:51.610Z,3.65
2019-05-21T11:58:23.652Z,7.53
2019-05-21T12:00:55.700Z,7.58
2019-05-21T12:03:27.679Z,5.95
2019-05-21T12:05:59.711Z,10.93
2019-05-21T12:08:31.670Z,6.53
2019-05-21T12:11:03.630Z,6.03
2019-05-21T12:13:35.647Z,5.08
2019-05-21T12:16:07.626Z,4.72
2019-05-21T12:18:40.275Z,4.22
2019-05-21T12:21:12.330Z,4.83
2019-05-21T12:23:44.365Z,7.78
2019-05-21T12:26:16.356Z,4.30
2019-05-21T12:28:48.374Z,4.72
2019-05-21T12:31:20.631Z,4.55
2019-05-21T12:33:52.694Z,4.53
2019-05-21T12:36:24.806Z,3.42
2019-05-21T12:39:11.638Z,4.50
2019-05-21T12:41:30.855Z,3.35
2019-05-21T12:44:02.855Z,3.70
2019-05-21T12:46:34.858Z,6.53
2019-05-21T12:49:06.836Z,4.57
2019-05-21T12:51:38.914Z,4.97
2019-05-21T12:54:10.896Z,4.77
2019-05-21T12:56:42.876Z,5.03
2019-05-21T12:59:14.893Z,4.57
2019-05-21T13:01:46.846Z,5.50
2019-05-21T13:04:18.864Z,6.43
2019-05-21T13:06:51.264Z,3.77
2019-05-21T13:09:32.167Z,6.50
2019-05-21T13:11:57.043Z,6.47
2019-05-21T13:14:29.011Z,6.03
2019-05-21T13:17:01.256Z,5.37
2019-05-21T13:19:33.230Z,6.87
2019-05-21T13:22:05.393Z,7.10
2019-05-21T13:24:37.393Z,6.17
2019-05-21T13:27:09.444Z,6.37
2019-05-21T13:29:41.398Z,5.20
2019-05-21T13:32:13.448Z,4.90
2019-05-21T13:34:45.763Z,4.23
2019-05-21T13:37:17.752Z,6.33
2019-05-21T13:39:50.684Z,6.30
2019-05-21T13:42:23.025Z,8.63
2019-05-21T13:44:55.170Z,5.47
2019-05-21T13:47:27.175Z,6.70
2019-05-21T13:49:59.366Z,4.80
2019-05-21T13:52:31.478Z,4.83
2019-05-21T13:55:03.525Z,7.63
2019-05-21T13:57:35.582Z,5.87
2019-05-21T14:00:13.702Z,6.33
2019-05-21T14:02:46.044Z,5.77
2019-05-21T14:05:18.172Z,7.53
2019-05-21T14:07:50.156Z,4.63
2019-05-21T14:10:22.184Z,4.77
2019-05-21T14:12:54.206Z,6.47
2019-05-21T14:15:26.182Z,5.53
2019-05-21T14:17:58.125Z,6.50
2019-05-21T14:20:30.371Z,4.27
2019-05-21T14:23:02.396Z,5.63
2019-05-21T14:25:34.603Z,6.90
2019-05-21T14:28:06.774Z,5.63
2019-05-21T14:30:38.830Z,4.87
2019-05-21T14:33:11.091Z,7.43
2019-05-21T14:35:43.094Z,5.78
2019-05-21T14:38:15.061Z,8.13
2019-05-21T14:40:47.060Z,9.10
2019-05-21T14:43:19.105Z,9.65
2019-05-21T14:45:51.282Z,8.00
2019-05-21T14:48:23.242Z,8.05
2019-05-21T14:50:55.293Z,8.55
2019-05-21T14:53:27.352Z,7.25
2019-05-21T14:55:59.293Z,5.25
2019-05-21T14:58:31.427Z,8.25
2019-05-21T15:01:03.554Z,6.13
2019-05-21T15:03:35.626Z,5.30
2019-05-21T15:06:07.584Z,7.13
2019-05-21T15:08:40.191Z,4.97
2019-05-21T15:11:12.216Z,9.50
2019-05-21T15:13:44.183Z,6.37
2019-05-21T15:16:16.148Z,7.20
2019-05-21T15:18:48.338Z,7.23
2019-05-21T15:21:26.052Z,7.43
2019-05-21T15:23:58.128Z,6.67
2019-05-21T15:26:30.338Z,8.50
2019-05-21T15:29:02.441Z,9.00
2019-05-21T15:31:34.402Z,13.40
2019-05-21T15:34:06.464Z,12.13
2019-05-21T15:36:38.425Z,12.63
2019-05-21T15:39:10.755Z,16.63
2019-05-21T15:41:42.678Z,18.43
2019-05-21T15:44:14.854Z,19.30
2019-05-21T15:46:50.138Z,15.37
2019-05-21T15:49:34.963Z,17.53
2019-05-21T15:51:54.667Z,26.73
2019-05-21T15:54:26.931Z,8.77
2019-05-21T15:56:58.868Z,6.13
2019-05-21T15:59:31.282Z,9.13
2019-05-21T16:02:03.546Z,6.50
2019-05-21T16:04:35.613Z,11.63
2019-05-21T16:07:07.548Z,12.80
2019-05-21T16:09:39.872Z,6.90
2019-05-21T16:12:11.998Z,13.40
2019-05-21T16:14:45.933Z,10.23
2019-05-21T16:17:18.485Z,7.47
2019-05-21T16:19:50.804Z,10.30
2019-05-21T16:22:24.651Z,13.10
2019-05-21T16:24:56.703Z,9.57
2019-05-21T16:27:28.705Z,7.40
2019-05-21T16:30:01.467Z,7.97
2019-05-21T16:32:33.625Z,8.13
2019-05-21T16:35:05.802Z,8.83
2019-05-21T16:37:37.965Z,8.33
2019-05-21T16:40:10.975Z,11.27
2019-05-21T16:42:44.930Z,9.17
2019-05-21T16:45:17.263Z,9.50
2019-05-21T16:47:49.488Z,9.43
2019-05-21T16:50:21.576Z,13.10
2019-05-21T16:52:53.641Z,18.40
2019-05-21T16:55:25.697Z,12.40
2019-05-21T16:57:57.665Z,12.07
2019-05-21T17:00:30.261Z,9.37
2019-05-21T17:03:03.394Z,9.33
2019-05-21T17:05:35.395Z,7.37
2019-05-21T17:08:07.440Z,7.67
2019-05-21T17:10:39.416Z,9.30
2019-05-21T17:13:11.379Z,9.23
2019-05-21T17:15:43.472Z,14.87
2019-05-21T17:18:15.487Z,16.13
2019-05-21T17:20:47.547Z,12.07
2019-05-21T17:23:20.018Z,13.17
2019-05-21T17:25:52.126Z,15.10
2019-05-21T17:28:24.121Z,16.83
2019-05-21T17:30:56.112Z,18.97
2019-05-21T17:33:28.091Z,19.53
2019-05-21T17:36:00.079Z,21.50
2019-05-21T17:38:32.066Z,16.47
2019-05-21T17:41:03.999Z,22.73
2019-05-21T17:43:36.054Z,17.63
2019-05-21T17:46:08.033Z,22.07
2019-05-21T17:48:40.618Z,27.43
2019-05-21T17:51:12.579Z,23.47
2019-05-21T17:53:44.586Z,22.60
2019-05-21T17:56:16.559Z,20.93
2019-05-21T17:58:48.649Z,17.80
2019-05-21T18:01:21.436Z,14.83
2019-05-21T18:03:54.119Z,12.50
2019-05-21T18:06:26.502Z,12.23
2019-05-21T18:08:58.670Z,13.60
2019-05-21T18:11:30.723Z,12.80
2019-05-21T18:14:02.991Z,16.27
2019-05-21T18:16:35.389Z,13.33
2019-05-21T18:19:08.646Z,14.43
2019-05-21T18:21:41.453Z,16.50
2019-05-21T18:24:13.484Z,15.40
2019-05-21T18:26:45.792Z,15.87
2019-05-21T18:29:17.779Z,20.23
2019-05-21T18:31:50.051Z,23.70
2019-05-21T18:34:22.167Z,18.03
2019-05-21T18:36:54.526Z,20.80
2019-05-21T18:39:26.558Z,19.33
2019-05-21T18:41:58.525Z,19.97
2019-05-21T18:44:31.004Z,22.03
2019-05-21T18:47:03.029Z,19.30
2019-05-21T18:49:35.081Z,18.33
2019-05-21T18:52:07.114Z,16.57
2019-05-21T18:54:39.096Z,15.33
2019-05-21T18:57:11.280Z,16.30
2019-05-21T18:59:43.739Z,16.13
2019-05-21T19:02:16.305Z,16.80
2019-05-21T19:04:48.376Z,19.00
2019-05-21T19:07:20.899Z,18.33
2019-05-21T19:09:52.871Z,17.40
2019-05-21T19:12:36.960Z,18.73
2019-05-21T19:14:58.709Z,18.83
2019-05-21T19:17:35.507Z,21.13
2019-05-21T19:20:06.780Z,20.03
2019-05-21T19:22:38.822Z,27.77
2019-05-21T19:25:10.909Z,19.53
2019-05-21T19:27:43.046Z,16.77
2019-05-21T19:30:15.508Z,36.93
2019-05-21T19:32:47.662Z,20.67
2019-05-21T19:35:20.141Z,16.87
2019-05-21T19:37:52.133Z,21.10
2019-05-21T19:40:24.086Z,19.90
2019-05-21T19:42:56.202Z,20.60
2019-05-21T19:45:31.311Z,21.30
2019-05-21T19:48:01.992Z,21.73
2019-05-21T19:50:34.331Z,24.50
2019-05-21T19:53:06.304Z,20.83
2019-05-21T19:55:38.993Z,21.07
2019-05-21T19:58:11.071Z,26.90
2019-05-21T20:00:49.694Z,23.03
2019-05-21T20:03:22.554Z,30.80
2019-05-21T20:05:55.419Z,27.50
2019-05-21T20:08:28.577Z,28.37
2019-05-21T20:11:01.054Z,24.30
2019-05-21T20:13:33.106Z,24.77
2019-05-21T20:16:06.191Z,24.20
2019-05-21T20:18:38.151Z,25.50
2019-05-21T20:21:11.133Z,23.20
2019-05-21T20:23:44.197Z,22.20
2019-05-21T20:26:19.655Z,22.10
2019-05-21T20:28:52.023Z,24.53
2019-05-21T20:31:25.248Z,23.33
2019-05-21T20:33:57.298Z,25.60
2019-05-21T20:36:29.974Z,26.97
2019-05-21T20:39:02.373Z,21.67
2019-05-21T20:41:34.378Z,21.43
2019-05-21T20:44:08.590Z,20.37
2019-05-21T20:46:41.552Z,20.13
2019-05-21T20:49:13.544Z,19.97
2019-05-21T20:51:45.978Z,19.23
2019-05-21T20:54:19.620Z,19.63
2019-05-21T20:56:52.016Z,22.17
2019-05-21T20:59:23.981Z,20.57
2019-05-21T21:01:57.305Z,19.43
2019-05-21T21:04:30.687Z,18.13
2019-05-21T21:07:03.389Z,17.80
2019-05-21T21:09:36.392Z,21.53
2019-05-21T21:12:09.762Z,19.83
2019-05-21T21:14:43.504Z,17.33
2019-05-21T21:17:17.191Z,18.23
2019-05-21T21:19:49.156Z,16.70
2019-05-21T21:22:21.270Z,18.13
2019-05-21T21:24:53.828Z,22.23
2019-05-21T21:27:26.278Z,21.73
2019-05-21T21:29:58.229Z,19.50
2019-05-21T21:32:30.903Z,23.07
2019-05-21T21:35:03.281Z,21.90
2019-05-21T21:37:35.408Z,26.73
2019-05-21T21:40:10.290Z,23.80
2019-05-21T21:42:42.794Z,30.23
2019-05-21T21:45:15.777Z,25.73
2019-05-21T21:47:47.718Z,26.63
2019-05-21T21:50:20.113Z,28.57
2019-05-21T21:52:52.065Z,30.93
2019-05-21T21:55:24.180Z,29.47
2019-05-21T21:57:56.157Z,29.97
2019-05-21T22:01:29.152Z,27.30
2019-05-21T22:04:04.688Z,31.07
2019-05-21T22:06:39.348Z,31.40
2019-05-21T22:09:24.610Z,33.73
2019-05-21T22:11:57.436Z,28.93
2019-05-21T22:14:30.099Z,32.07
2019-05-21T22:17:02.260Z,34.23
2019-05-21T22:19:34.880Z,32.27
2019-05-21T22:22:07.485Z,33.87
2019-05-21T22:24:39.744Z,31.23
2019-05-21T22:27:11.716Z,32.83
2019-05-21T22:29:43.867Z,32.77
2019-05-21T22:32:16.822Z,36.53
2019-05-21T22:34:48.877Z,31.87
2019-05-21T22:37:23.719Z,37.87
2019-05-21T22:39:55.758Z,39.77
2019-05-21T22:42:28.304Z,32.93
2019-05-21T22:45:08.068Z,31.60
2019-05-21T22:47:35.500Z,32.73
2019-05-21T22:50:09.274Z,34.57
2019-05-21T22:52:41.235Z,29.30
2019-05-21T22:55:13.412Z,25.70
2019-05-21T22:57:45.533Z,22.03
2019-05-21T23:00:17.900Z,24.87
2019-05-21T23:02:49.890Z,25.73
2019-05-21T23:05:23.117Z,29.00
2019-05-21T23:07:55.671Z,32.67
2019-05-21T23:10:28.061Z,34.37
2019-05-21T23:13:00.746Z,31.10
2019-05-21T23:15:32.710Z,36.90
2019-05-21T23:18:05.346Z,32.33
2019-05-21T23:20:38.221Z,34.53
2019-05-21T23:23:10.345Z,32.40
2019-05-21T23:25:43.662Z,34.60
2019-05-21T23:28:16.107Z,31.73
2019-05-21T23:30:48.862Z,35.00
2019-05-21T23:33:21.577Z,33.47
2019-05-21T23:35:53.837Z,35.87
2019-05-21T23:38:26.275Z,31.77
2019-05-21T23:40:58.285Z,35.53
2019-05-21T23:43:31.016Z,35.43
2019-05-21T23:46:03.090Z,34.47
2019-05-21T23:48:35.631Z,37.57
2019-05-21T23:51:07.608Z,32.00
2019-05-21T23:53:40.813Z,39.40
2019-05-21T23:56:13.163Z,36.17
2019-05-21T23:58:47.976Z,34.03
